createdAt,value
2023-05-19T00:00:38.219Z,0.00
2023-05-19T00:01:38.264Z,0.00
2023-05-19T00:02:38.242Z,0.00
2023-05-19T00:03:38.229Z,0.00
2023-05-19T00:04:38.160Z,0.00
2023-05-19T00:05:38.184Z,0.00
2023-05-19T00:06:38.132Z,0.00
2023-05-19T00:07:38.189Z,0.00
2023-05-19T00:08:38.106Z,0.00
2023-05-19T00:09:38.111Z,0.00
2023-05-19T00:10:38.095Z,0.00
2023-05-19T00:11:38.092Z,0.00
2023-05-19T00:12:38.078Z,0.00
2023-05-19T00:13:38.063Z,0.00
2023-05-19T00:14:38.042Z,0.00
2023-05-19T00:15:38.104Z,0.00
2023-05-19T00:16:38.094Z,0.00
2023-05-19T00:17:38.085Z,0.00
2023-05-19T00:18:38.032Z,0.00
2023-05-19T00:19:38.030Z,0.00
2023-05-19T00:20:37.998Z,0.00
2023-05-19T00:21:37.989Z,0.00
2023-05-19T00:22:37.986Z,0.00
2023-05-19T00:23:37.974Z,0.00
2023-05-19T00:24:37.948Z,0.00
2023-05-19T00:25:37.930Z,0.00
2023-05-19T00:26:37.930Z,0.00
2023-05-19T00:27:37.947Z,0.00
2023-05-19T00:28:37.905Z,0.00
2023-05-19T00:29:37.906Z,0.00
2023-05-19T00:30:37.892Z,0.00
2023-05-19T00:31:37.960Z,0.00
2023-05-19T00:32:37.891Z,0.00
2023-05-19T00:33:37.851Z,0.00
2023-05-19T00:34:37.833Z,0.00
2023-05-19T00:35:37.833Z,0.00
2023-05-19T00:36:37.808Z,0.00
2023-05-19T00:37:37.814Z,0.00
2023-05-19T00:38:37.780Z,0.00
2023-05-19T00:39:37.827Z,0.00
2023-05-19T00:40:37.781Z,0.00
2023-05-19T00:41:37.765Z,0.00
2023-05-19T00:42:37.760Z,0.00
2023-05-19T00:43:37.767Z,0.00
2023-05-19T00:44:37.718Z,0.00
2023-05-19T00:45:37.722Z,0.00
2023-05-19T00:46:37.727Z,0.00
2023-05-19T00:47:37.770Z,0.00
2023-05-19T00:48:37.685Z,0.00
2023-05-19T00:49:37.683Z,0.00
2023-05-19T00:50:37.666Z,0.00
2023-05-19T00:51:37.907Z,0.00
2023-05-19T00:52:37.668Z,0.00
2023-05-19T00:53:37.662Z,0.00
2023-05-19T00:54:37.758Z,0.00
2023-05-19T00:55:37.619Z,0.00
2023-05-19T00:56:37.617Z,0.00
2023-05-19T00:57:37.645Z,0.00
2023-05-19T00:58:37.591Z,0.00
2023-05-19T00:59:37.589Z,0.00
2023-05-19T01:00:37.594Z,0.00
2023-05-19T01:01:37.673Z,0.00
2023-05-19T01:02:37.607Z,0.00
2023-05-19T01:03:37.662Z,0.00
2023-05-19T01:04:37.523Z,0.00
2023-05-19T01:05:37.515Z,0.00
2023-05-19T01:06:37.476Z,0.00
2023-05-19T01:07:37.494Z,0.00
2023-05-19T01:08:37.610Z,0.00
2023-05-19T01:09:37.455Z,0.00
2023-05-19T01:10:37.449Z,0.00
2023-05-19T01:11:37.449Z,0.00
2023-05-19T01:12:37.414Z,0.00
2023-05-19T01:13:38.173Z,0.00
2023-05-19T01:14:37.399Z,0.00
2023-05-19T01:15:37.420Z,0.00
2023-05-19T01:16:37.439Z,0.00
2023-05-19T01:17:37.424Z,0.00
2023-05-19T01:18:37.400Z,0.00
2023-05-19T01:19:37.385Z,0.00
2023-05-19T01:20:37.345Z,0.00
2023-05-19T01:21:37.325Z,0.00
2023-05-19T01:22:37.304Z,0.00
2023-05-19T01:23:37.332Z,0.00
2023-05-19T01:24:37.315Z,0.00
2023-05-19T01:25:37.289Z,0.00
2023-05-19T01:26:37.282Z,0.00
2023-05-19T01:27:37.281Z,0.00
2023-05-19T01:28:37.256Z,0.00
2023-05-19T01:29:37.277Z,0.00
2023-05-19T01:30:37.216Z,0.00
2023-05-19T01:31:37.267Z,0.00
2023-05-19T01:32:37.246Z,0.00
2023-05-19T01:33:37.214Z,0.00
2023-05-19T01:34:37.211Z,0.00
2023-05-19T01:35:37.238Z,0.00
2023-05-19T01:36:37.157Z,0.00
2023-05-19T01:37:37.178Z,0.00
2023-05-19T01:38:37.138Z,0.00
2023-05-19T01:39:37.148Z,0.00
2023-05-19T01:40:37.143Z,0.00
2023-05-19T01:41:37.173Z,0.00
2023-05-19T01:42:37.103Z,0.00
2023-05-19T01:43:37.105Z,0.00
2023-05-19T01:44:37.111Z,0.00
2023-05-19T01:45:37.115Z,0.00
2023-05-19T01:46:37.107Z,0.00
2023-05-19T01:47:37.165Z,0.00
2023-05-19T01:48:37.047Z,0.00
2023-05-19T01:49:46.219Z,0.00
2023-05-19T01:50:37.013Z,0.00
2023-05-19T01:51:37.058Z,0.00
2023-05-19T01:52:37.001Z,0.00
2023-05-19T01:53:37.027Z,0.00
2023-05-19T01:54:37.004Z,0.00
2023-05-19T01:55:36.968Z,0.00
2023-05-19T01:56:36.988Z,0.00
2023-05-19T01:57:36.955Z,0.00
2023-05-19T01:58:36.930Z,0.00
2023-05-19T01:59:36.971Z,0.00
2023-05-19T02:00:36.940Z,0.00
2023-05-19T02:01:36.945Z,0.00
2023-05-19T02:02:36.957Z,0.00
2023-05-19T02:03:36.908Z,0.00
2023-05-19T02:04:36.934Z,0.00
2023-05-19T02:05:36.883Z,0.00
2023-05-19T02:06:36.866Z,0.00
2023-05-19T02:07:36.863Z,0.00
2023-05-19T02:08:36.828Z,0.00
2023-05-19T02:09:36.823Z,0.00
2023-05-19T02:10:36.832Z,0.00
2023-05-19T02:11:36.801Z,0.00
2023-05-19T02:12:36.787Z,0.00
2023-05-19T02:13:36.782Z,0.00
2023-05-19T02:14:36.762Z,0.00
2023-05-19T02:15:36.788Z,0.00
2023-05-19T02:16:36.751Z,0.00
2023-05-19T02:17:36.763Z,0.00
2023-05-19T02:18:36.806Z,0.00
2023-05-19T02:19:36.744Z,0.00
2023-05-19T02:20:36.694Z,0.00
2023-05-19T02:21:36.693Z,0.00
2023-05-19T02:22:36.677Z,0.00
2023-05-19T02:23:36.661Z,0.00
2023-05-19T02:24:36.652Z,0.00
2023-05-19T02:25:36.650Z,0.00
2023-05-19T02:26:36.622Z,0.00
2023-05-19T02:27:36.644Z,0.00
2023-05-19T02:28:36.603Z,0.00
2023-05-19T02:29:36.617Z,0.00
2023-05-19T02:30:36.600Z,0.00
2023-05-19T02:31:36.609Z,0.00
2023-05-19T02:32:36.642Z,0.00
2023-05-19T02:33:36.557Z,0.00
2023-05-19T02:34:36.544Z,0.00
2023-05-19T02:35:36.600Z,0.00
2023-05-19T02:36:36.522Z,0.00
2023-05-19T02:37:36.514Z,0.00
2023-05-19T02:38:36.504Z,0.00
2023-05-19T02:39:36.530Z,0.00
2023-05-19T02:40:36.492Z,0.00
2023-05-19T02:41:36.471Z,0.00
2023-05-19T02:42:36.489Z,0.00
2023-05-19T02:43:36.456Z,0.00
2023-05-19T02:44:36.436Z,0.00
2023-05-19T02:45:36.474Z,0.00
2023-05-19T02:46:36.494Z,0.00
2023-05-19T02:47:37.305Z,0.00
2023-05-19T02:48:36.388Z,0.00
2023-05-19T02:49:36.410Z,0.00
2023-05-19T02:50:36.372Z,0.00
2023-05-19T02:51:36.387Z,0.00
2023-05-19T02:52:36.341Z,0.00
2023-05-19T02:53:36.369Z,0.00
2023-05-19T02:54:36.357Z,0.00
2023-05-19T02:55:36.315Z,0.00
2023-05-19T02:56:36.267Z,1.00
2023-05-19T02:57:36.273Z,1.00
2023-05-19T02:58:36.280Z,0.00
2023-05-19T02:59:36.287Z,0.00
2023-05-19T03:00:36.321Z,0.00
2023-05-19T03:01:36.276Z,2.00
2023-05-19T03:02:36.264Z,1.00
2023-05-19T03:03:36.359Z,1.00
2023-05-19T03:04:36.221Z,0.00
2023-05-19T03:05:36.187Z,2.00
2023-05-19T03:06:36.184Z,1.00
2023-05-19T03:07:36.141Z,1.00
2023-05-19T03:08:36.133Z,1.00
2023-05-19T03:09:36.141Z,4.00
2023-05-19T03:10:36.110Z,7.00
2023-05-19T03:11:36.106Z,4.00
2023-05-19T03:12:36.065Z,3.00
2023-05-19T03:13:36.078Z,2.00
2023-05-19T03:14:36.079Z,5.00
2023-05-19T03:15:36.045Z,9.00
2023-05-19T03:16:36.121Z,10.00
2023-05-19T03:17:36.123Z,10.00
2023-05-19T03:18:36.064Z,13.00
2023-05-19T03:19:36.026Z,18.00
2023-05-19T03:20:36.007Z,14.00
2023-05-19T03:21:36.059Z,16.00
2023-05-19T03:22:35.986Z,19.00
2023-05-19T03:23:35.976Z,19.00
2023-05-19T03:24:35.954Z,24.00
2023-05-19T03:25:35.956Z,29.00
2023-05-19T03:26:35.936Z,32.00
2023-05-19T03:27:35.951Z,31.00
2023-05-19T03:28:35.934Z,40.00
2023-05-19T03:29:35.912Z,43.00
2023-05-19T03:30:35.899Z,47.00
2023-05-19T03:31:35.924Z,53.00
2023-05-19T03:32:35.972Z,57.00
2023-05-19T03:33:35.879Z,62.00
2023-05-19T03:34:35.860Z,67.00
2023-05-19T03:35:35.867Z,76.00
2023-05-19T03:36:35.824Z,80.00
2023-05-19T03:37:35.860Z,85.00
2023-05-19T03:38:35.843Z,91.00
2023-05-19T03:39:35.805Z,99.00
2023-05-19T03:40:35.786Z,105.00
2023-05-19T03:41:35.790Z,111.00
2023-05-19T03:42:35.761Z,120.00
2023-05-19T03:43:35.774Z,130.00
2023-05-19T03:44:35.749Z,138.00
2023-05-19T03:45:35.792Z,148.00
2023-05-19T03:46:35.738Z,158.00
2023-05-19T03:47:35.793Z,166.00
2023-05-19T03:48:35.754Z,172.00
2023-05-19T03:49:35.697Z,180.00
2023-05-19T03:50:35.675Z,192.00
2023-05-19T03:51:35.684Z,203.00
2023-05-19T03:52:35.660Z,214.00
2023-05-19T03:53:35.688Z,227.00
2023-05-19T03:54:35.656Z,239.00
2023-05-19T03:55:35.632Z,252.00
2023-05-19T03:56:35.627Z,261.00
2023-05-19T03:57:35.634Z,272.00
2023-05-19T03:58:35.584Z,284.00
2023-05-19T03:59:35.617Z,301.00
2023-05-19T04:00:35.812Z,310.00
2023-05-19T04:01:35.573Z,324.00
2023-05-19T04:02:35.656Z,338.00
2023-05-19T04:03:35.557Z,351.00
2023-05-19T04:04:35.717Z,361.00
2023-05-19T04:05:35.527Z,374.00
2023-05-19T04:06:35.574Z,388.00
2023-05-19T04:07:35.487Z,402.00
2023-05-19T04:08:35.526Z,412.00
2023-05-19T04:09:35.609Z,427.00
2023-05-19T04:10:35.477Z,439.00
2023-05-19T04:11:35.453Z,456.00
2023-05-19T04:12:35.459Z,466.00
2023-05-19T04:13:35.435Z,477.00
2023-05-19T04:14:35.555Z,491.00
2023-05-19T04:15:35.547Z,500.00
2023-05-19T04:16:35.411Z,513.00
2023-05-19T04:17:35.509Z,527.00
2023-05-19T04:18:35.412Z,538.00
2023-05-19T04:19:35.366Z,553.00
2023-05-19T04:20:35.377Z,562.00
2023-05-19T04:21:35.371Z,576.00
2023-05-19T04:22:35.352Z,592.00
2023-05-19T04:23:35.304Z,606.00
2023-05-19T04:24:35.315Z,619.00
2023-05-19T04:25:35.406Z,628.00
2023-05-19T04:26:35.303Z,630.00
2023-05-19T04:27:35.277Z,634.00
2023-05-19T04:28:35.280Z,641.00
2023-05-19T04:29:35.264Z,664.00
2023-05-19T04:30:35.384Z,685.00
2023-05-19T04:31:35.406Z,713.00
2023-05-19T04:32:35.250Z,734.00
2023-05-19T04:33:35.218Z,753.00
2023-05-19T04:34:35.208Z,777.00
2023-05-19T04:35:35.204Z,784.00
2023-05-19T04:36:35.218Z,800.00
2023-05-19T04:37:35.192Z,824.00
2023-05-19T04:38:35.239Z,848.00
2023-05-19T04:39:35.149Z,863.00
2023-05-19T04:40:35.272Z,875.00
2023-05-19T04:41:35.142Z,894.00
2023-05-19T04:42:35.137Z,904.00
2023-05-19T04:43:35.146Z,913.00
2023-05-19T04:44:35.114Z,925.00
2023-05-19T04:45:35.087Z,935.00
2023-05-19T04:46:35.144Z,949.00
2023-05-19T04:47:35.111Z,958.00
2023-05-19T04:48:35.092Z,985.00
2023-05-19T04:49:35.051Z,990.00
2023-05-19T04:50:35.254Z,1003.00
2023-05-19T04:51:35.044Z,1021.00
2023-05-19T04:52:35.029Z,1016.00
2023-05-19T04:53:35.057Z,1058.00
2023-05-19T04:54:34.994Z,1061.00
2023-05-19T04:55:35.126Z,1051.00
2023-05-19T04:56:34.971Z,1077.00
2023-05-19T04:57:34.948Z,1071.00
2023-05-19T04:58:34.956Z,1093.00
2023-05-19T04:59:34.966Z,1113.00
2023-05-19T05:00:34.925Z,1115.00
2023-05-19T05:01:34.951Z,1144.00
2023-05-19T05:02:34.947Z,1131.00
2023-05-19T05:03:35.067Z,1146.00
2023-05-19T05:04:34.884Z,1142.00
2023-05-19T05:05:34.870Z,1200.00
2023-05-19T05:06:34.868Z,1207.00
2023-05-19T05:07:34.858Z,1200.00
2023-05-19T05:08:34.846Z,1197.00
2023-05-19T05:09:34.839Z,1224.00
2023-05-19T05:10:34.973Z,1240.00
2023-05-19T05:11:34.822Z,1263.00
2023-05-19T05:12:34.799Z,1284.00
2023-05-19T05:13:34.792Z,1287.00
2023-05-19T05:14:34.814Z,1333.00
2023-05-19T05:15:34.790Z,1338.00
2023-05-19T05:16:34.825Z,1338.00
2023-05-19T05:17:34.800Z,1374.00
2023-05-19T05:18:34.733Z,1478.00
2023-05-19T05:19:34.782Z,1427.00
2023-05-19T05:20:34.839Z,1424.00
2023-05-19T05:21:34.769Z,1384.00
2023-05-19T05:22:34.700Z,1344.00
2023-05-19T05:23:34.685Z,1436.00
2023-05-19T05:24:34.673Z,1410.00
2023-05-19T05:25:34.831Z,1446.00
2023-05-19T05:26:34.686Z,1430.00
2023-05-19T05:27:34.642Z,1578.00
2023-05-19T05:28:34.623Z,1663.00
2023-05-19T05:29:34.636Z,1178.00
2023-05-19T05:30:34.635Z,1511.00
2023-05-19T05:31:34.596Z,1393.00
2023-05-19T05:32:34.716Z,1429.00
2023-05-19T05:33:34.596Z,1549.00
2023-05-19T05:34:34.591Z,1604.00
2023-05-19T05:35:34.616Z,1643.00
2023-05-19T05:36:34.563Z,1688.00
2023-05-19T05:37:34.530Z,1694.00
2023-05-19T05:38:34.539Z,1862.00
2023-05-19T05:39:34.495Z,997.00
2023-05-19T05:40:34.502Z,1561.00
2023-05-19T05:41:34.472Z,1637.00
2023-05-19T05:42:34.484Z,1718.00
2023-05-19T05:43:34.511Z,1753.00
2023-05-19T05:44:34.457Z,1702.00
2023-05-19T05:45:34.600Z,1682.00
2023-05-19T05:46:34.483Z,1759.00
2023-05-19T05:47:34.505Z,1751.00
2023-05-19T05:48:34.407Z,1784.00
2023-05-19T05:49:34.399Z,1801.00
2023-05-19T05:50:34.433Z,1796.00
2023-05-19T05:51:34.373Z,1815.00
2023-05-19T05:52:34.384Z,1825.00
2023-05-19T05:53:34.360Z,1827.00
2023-05-19T05:54:34.366Z,2163.00
2023-05-19T05:55:34.607Z,1438.00
2023-05-19T05:56:34.370Z,1848.00
2023-05-19T05:57:34.324Z,1849.00
2023-05-19T05:58:35.250Z,1853.00
2023-05-19T05:59:34.298Z,1852.00
2023-05-19T06:00:34.559Z,1876.00
2023-05-19T06:01:35.522Z,1871.00
2023-05-19T06:02:34.483Z,1888.00
2023-05-19T06:03:34.328Z,1892.00
2023-05-19T06:04:34.271Z,1896.00
2023-05-19T06:05:34.302Z,1902.00
2023-05-19T06:06:34.225Z,1918.00
2023-05-19T06:07:34.231Z,1938.00
2023-05-19T06:08:34.206Z,1930.00
2023-05-19T06:09:34.217Z,1936.00
2023-05-19T06:10:34.595Z,1939.00
2023-05-19T06:11:34.148Z,1952.00
2023-05-19T06:12:34.162Z,1945.00
2023-05-19T06:13:34.132Z,1949.00
2023-05-19T06:14:34.155Z,1971.00
2023-05-19T06:15:34.208Z,2003.00
2023-05-19T06:16:34.189Z,2007.00
2023-05-19T06:17:34.160Z,2048.00
2023-05-19T06:18:34.103Z,2091.00
2023-05-19T06:19:34.083Z,1936.00
2023-05-19T06:20:34.295Z,1988.00
2023-05-19T06:21:34.090Z,1958.00
2023-05-19T06:22:34.056Z,2021.00
2023-05-19T06:23:34.039Z,2019.00
2023-05-19T06:24:34.033Z,1995.00
2023-05-19T06:25:34.290Z,2013.00
2023-05-19T06:26:34.014Z,1970.00
2023-05-19T06:27:34.810Z,2011.00
2023-05-19T06:28:34.009Z,2023.00
2023-05-19T06:29:33.977Z,1929.00
2023-05-19T06:30:34.186Z,1952.00
2023-05-19T06:31:34.019Z,1962.00
2023-05-19T06:32:34.021Z,1979.00
2023-05-19T06:33:33.912Z,2024.00
2023-05-19T06:34:33.914Z,2055.00
2023-05-19T06:35:33.899Z,2060.00
2023-05-19T06:36:33.897Z,2087.00
2023-05-19T06:37:33.921Z,2089.00
2023-05-19T06:38:33.897Z,2098.00
2023-05-19T06:39:33.851Z,2089.00
2023-05-19T06:40:34.255Z,2116.00
2023-05-19T06:41:33.864Z,2165.00
2023-05-19T06:42:33.848Z,2125.00
2023-05-19T06:43:33.866Z,2124.00
2023-05-19T06:44:33.821Z,2168.00
2023-05-19T06:45:33.805Z,2136.00
2023-05-19T06:46:33.918Z,2181.00
2023-05-19T06:47:33.801Z,2092.00
2023-05-19T06:48:33.766Z,2051.00
2023-05-19T06:49:33.766Z,2145.00
2023-05-19T06:50:33.971Z,2137.00
2023-05-19T06:51:33.753Z,2149.00
2023-05-19T06:52:33.725Z,2279.00
2023-05-19T06:53:33.895Z,2335.00
2023-05-19T06:54:33.732Z,1810.00
2023-05-19T06:55:37.074Z,2157.00
2023-05-19T06:56:33.708Z,2157.00
2023-05-19T06:57:33.666Z,2258.00
2023-05-19T06:58:33.738Z,2149.00
2023-05-19T06:59:33.665Z,2099.00
2023-05-19T07:00:33.860Z,2066.00
2023-05-19T07:01:33.662Z,2177.00
2023-05-19T07:02:33.659Z,2122.00
2023-05-19T07:03:33.729Z,2159.00
2023-05-19T07:04:33.600Z,2149.00
2023-05-19T07:05:33.600Z,2177.00
2023-05-19T07:06:33.593Z,2182.00
2023-05-19T07:07:33.597Z,2205.00
2023-05-19T07:08:33.595Z,2192.00
2023-05-19T07:09:33.549Z,2213.00
2023-05-19T07:10:35.063Z,2195.00
2023-05-19T07:11:33.522Z,2180.00
2023-05-19T07:12:33.522Z,2252.00
2023-05-19T07:13:33.524Z,2240.00
2023-05-19T07:14:33.495Z,2249.00
2023-05-19T07:15:33.506Z,2246.00
2023-05-19T07:16:33.537Z,2250.00
2023-05-19T07:17:33.492Z,2244.00
2023-05-19T07:18:33.445Z,2258.00
2023-05-19T07:19:33.429Z,2243.00
2023-05-19T07:20:33.657Z,2259.00
2023-05-19T07:21:33.464Z,2239.00
2023-05-19T07:22:33.409Z,2304.00
2023-05-19T07:23:33.393Z,2308.00
2023-05-19T07:24:33.450Z,2301.00
2023-05-19T07:25:33.399Z,2302.00
2023-05-19T07:26:33.360Z,2307.00
2023-05-19T07:27:33.352Z,2317.00
2023-05-19T07:28:33.346Z,2287.00
2023-05-19T07:29:33.332Z,2368.00
2023-05-19T07:30:33.635Z,2348.00
2023-05-19T07:31:33.380Z,2340.00
2023-05-19T07:32:33.341Z,2351.00
2023-05-19T07:33:33.291Z,2354.00
2023-05-19T07:34:33.279Z,2358.00
2023-05-19T07:35:33.254Z,2394.00
2023-05-19T07:36:33.261Z,2372.00
2023-05-19T07:37:33.248Z,2366.00
2023-05-19T07:38:33.353Z,2370.00
2023-05-19T07:39:33.203Z,2409.00
2023-05-19T07:40:33.348Z,2387.00
2023-05-19T07:41:34.381Z,2384.00
2023-05-19T07:42:33.185Z,2397.00
2023-05-19T07:43:33.194Z,2381.00
2023-05-19T07:44:33.173Z,2398.00
2023-05-19T07:45:33.190Z,2419.00
2023-05-19T07:46:33.285Z,2410.00
2023-05-19T07:47:33.175Z,2419.00
2023-05-19T07:48:33.181Z,2422.00
2023-05-19T07:49:33.187Z,2405.00
2023-05-19T07:50:33.259Z,2423.00
2023-05-19T07:51:33.099Z,2455.00
2023-05-19T07:52:33.081Z,2473.00
2023-05-19T07:53:39.106Z,2438.00
2023-05-19T07:54:33.102Z,2415.00
2023-05-19T07:55:33.052Z,2542.00
2023-05-19T07:56:33.047Z,2450.00
2023-05-19T07:57:33.025Z,2471.00
2023-05-19T07:58:33.014Z,2465.00
2023-05-19T07:59:33.028Z,2481.00
2023-05-19T08:00:33.171Z,2456.00
2023-05-19T08:01:32.973Z,2572.00
2023-05-19T08:02:33.013Z,2523.00
2023-05-19T08:03:33.199Z,2487.00
2023-05-19T08:04:33.027Z,2531.00
2023-05-19T08:05:32.958Z,2527.00
2023-05-19T08:06:32.934Z,2454.00
2023-05-19T08:07:32.918Z,2501.00
2023-05-19T08:08:32.921Z,2531.00
2023-05-19T08:09:32.887Z,2494.00
2023-05-19T08:10:33.224Z,2484.00
2023-05-19T08:11:32.861Z,2605.00
2023-05-19T08:12:32.890Z,2561.00
2023-05-19T08:13:32.849Z,2557.00
2023-05-19T08:14:32.853Z,2562.00
2023-05-19T08:15:32.917Z,2564.00
2023-05-19T08:16:32.834Z,2558.00
2023-05-19T08:17:32.816Z,2550.00
2023-05-19T08:18:32.816Z,2558.00
2023-05-19T08:19:32.801Z,2585.00
2023-05-19T08:20:33.070Z,2597.00
2023-05-19T08:21:32.783Z,2595.00
2023-05-19T08:22:32.759Z,2605.00
2023-05-19T08:23:32.765Z,2622.00
2023-05-19T08:24:32.758Z,2620.00
2023-05-19T08:25:32.746Z,2626.00
2023-05-19T08:26:33.085Z,2621.00
2023-05-19T08:27:32.710Z,2677.00
2023-05-19T08:28:32.799Z,2718.00
2023-05-19T08:29:32.680Z,2661.00
2023-05-19T08:30:32.832Z,2737.00
2023-05-19T08:31:32.751Z,2688.00
2023-05-19T08:32:32.680Z,2674.00
2023-05-19T08:33:32.647Z,2669.00
2023-05-19T08:34:32.644Z,2677.00
2023-05-19T08:35:32.642Z,2682.00
2023-05-19T08:36:32.627Z,2669.00
2023-05-19T08:37:34.120Z,2649.00
2023-05-19T08:38:32.626Z,2820.00
2023-05-19T08:39:32.606Z,2670.00
2023-05-19T08:40:32.784Z,2660.00
2023-05-19T08:41:32.572Z,2591.00
2023-05-19T08:42:32.539Z,2696.00
2023-05-19T08:43:32.562Z,2642.00
2023-05-19T08:44:32.569Z,2684.00
2023-05-19T08:45:32.660Z,2642.00
2023-05-19T08:46:32.588Z,3311.00
2023-05-19T08:47:32.512Z,1594.00
2023-05-19T08:48:32.493Z,2543.00
2023-05-19T08:49:32.576Z,2799.00
2023-05-19T08:50:32.661Z,2667.00
2023-05-19T08:51:32.454Z,2666.00
2023-05-19T08:52:32.434Z,5210.00
2023-05-19T08:53:34.655Z,988.00
2023-05-19T08:54:32.411Z,3279.00
2023-05-19T08:55:32.527Z,2555.00
2023-05-19T08:56:32.407Z,1385.00
2023-05-19T08:57:32.393Z,1740.00
2023-05-19T08:58:32.382Z,2720.00
2023-05-19T08:59:32.366Z,3464.00
2023-05-19T09:00:32.633Z,6584.00
2023-05-19T09:01:32.396Z,3099.00
2023-05-19T09:02:32.355Z,1137.00
2023-05-19T09:03:32.397Z,4435.00
2023-05-19T09:04:32.772Z,1326.00
2023-05-19T09:05:32.542Z,1655.00
2023-05-19T09:06:32.275Z,6387.00
2023-05-19T09:07:32.297Z,1817.00
2023-05-19T09:08:32.261Z,4789.00
2023-05-19T09:09:32.272Z,2586.00
2023-05-19T09:10:32.259Z,7727.00
2023-05-19T09:11:32.228Z,3023.00
2023-05-19T09:12:32.214Z,3108.00
2023-05-19T09:13:32.224Z,2804.00
2023-05-19T09:14:32.219Z,2495.00
2023-05-19T09:15:32.369Z,1579.00
2023-05-19T09:16:32.241Z,2214.00
2023-05-19T09:17:32.187Z,7269.00
2023-05-19T09:18:32.177Z,5086.00
2023-05-19T09:19:32.327Z,3549.00
2023-05-19T09:20:32.163Z,3502.00
2023-05-19T09:21:32.152Z,3024.00
2023-05-19T09:22:32.117Z,2422.00
2023-05-19T09:23:32.121Z,1938.00
2023-05-19T09:24:32.090Z,4159.00
2023-05-19T09:25:32.290Z,4296.00
2023-05-19T09:26:32.087Z,8647.00
2023-05-19T09:27:32.153Z,3215.00
2023-05-19T09:28:32.061Z,3225.00
2023-05-19T09:29:32.062Z,1560.00
2023-05-19T09:30:32.033Z,4028.00
2023-05-19T09:31:32.084Z,1934.00
2023-05-19T09:32:32.047Z,3310.00
2023-05-19T09:33:31.998Z,3189.00
2023-05-19T09:34:31.968Z,3390.00
2023-05-19T09:35:32.241Z,3423.00
2023-05-19T09:36:31.985Z,6769.00
2023-05-19T09:37:31.976Z,2098.00
2023-05-19T09:38:31.951Z,8942.00
2023-05-19T09:39:31.939Z,3471.00
2023-05-19T09:40:31.913Z,1969.00
2023-05-19T09:41:31.954Z,3258.00
2023-05-19T09:42:31.905Z,4338.00
2023-05-19T09:43:31.880Z,4270.00
2023-05-19T09:44:31.858Z,4512.00
2023-05-19T09:45:32.039Z,4271.00
2023-05-19T09:46:31.957Z,5858.00
2023-05-19T09:47:31.882Z,3242.00
2023-05-19T09:48:31.833Z,6195.00
2023-05-19T09:49:31.818Z,2264.00
2023-05-19T09:50:31.820Z,4074.00
2023-05-19T09:51:31.799Z,4048.00
2023-05-19T09:52:31.776Z,4016.00
2023-05-19T09:53:31.787Z,3846.00
2023-05-19T09:54:31.794Z,8166.00
2023-05-19T09:55:31.892Z,1746.00
2023-05-19T09:56:31.731Z,3420.00
2023-05-19T09:57:31.741Z,8099.00
2023-05-19T09:58:31.730Z,2679.00
2023-05-19T09:59:33.659Z,1676.00
2023-05-19T10:00:31.841Z,3284.00
2023-05-19T10:01:31.750Z,6559.00
2023-05-19T10:02:31.728Z,6142.00
2023-05-19T10:03:31.674Z,2980.00
2023-05-19T10:04:31.759Z,1849.00
2023-05-19T10:05:31.848Z,4139.00
2023-05-19T10:06:31.651Z,4506.00
2023-05-19T10:07:31.636Z,4558.00
2023-05-19T10:08:31.601Z,9776.00
2023-05-19T10:09:31.599Z,2116.00
2023-05-19T10:10:31.599Z,6987.00
2023-05-19T10:11:31.582Z,5911.00
2023-05-19T10:12:31.619Z,2341.00
2023-05-19T10:13:31.597Z,9704.00
2023-05-19T10:14:31.554Z,2888.00
2023-05-19T10:15:33.056Z,2171.00
2023-05-19T10:16:31.552Z,7682.00
2023-05-19T10:17:31.625Z,2244.00
2023-05-19T10:18:31.576Z,4118.00
2023-05-19T10:19:31.586Z,5125.00
2023-05-19T10:20:31.691Z,9599.00
2023-05-19T10:21:31.498Z,2991.00
2023-05-19T10:22:31.494Z,6239.00
2023-05-19T10:23:31.455Z,4435.00
2023-05-19T10:24:31.437Z,3899.00
2023-05-19T10:25:31.646Z,3410.00
2023-05-19T10:26:31.416Z,2131.00
2023-05-19T10:27:31.401Z,4679.00
2023-05-19T10:28:31.436Z,5217.00
2023-05-19T10:29:31.409Z,5491.00
2023-05-19T10:30:31.399Z,8010.00
2023-05-19T10:31:31.490Z,4424.00
2023-05-19T10:32:31.536Z,5926.00
2023-05-19T10:33:31.356Z,6617.00
2023-05-19T10:34:31.362Z,2589.00
2023-05-19T10:35:32.448Z,2391.00
2023-05-19T10:36:31.362Z,4933.00
2023-05-19T10:37:31.346Z,4985.00
2023-05-19T10:38:31.344Z,6617.00
2023-05-19T10:39:31.284Z,9161.00
2023-05-19T10:40:31.279Z,4418.00
2023-05-19T10:41:31.284Z,2347.00
2023-05-19T10:42:31.248Z,4948.00
2023-05-19T10:43:31.310Z,6321.00
2023-05-19T10:44:31.271Z,8007.00
2023-05-19T10:45:31.715Z,2347.00
2023-05-19T10:46:31.254Z,5434.00
2023-05-19T10:47:31.269Z,5260.00
2023-05-19T10:48:31.198Z,9169.00
2023-05-19T10:49:31.228Z,4744.00
2023-05-19T10:50:31.169Z,3920.00
2023-05-19T10:51:31.174Z,4573.00
2023-05-19T10:52:31.178Z,2045.00
2023-05-19T10:53:31.177Z,9819.00
2023-05-19T10:54:31.146Z,4104.00
2023-05-19T10:55:31.335Z,6509.00
2023-05-19T10:56:31.112Z,6416.00
2023-05-19T10:57:31.114Z,4639.00
2023-05-19T10:58:31.073Z,3425.00
2023-05-19T10:59:31.238Z,4460.00
2023-05-19T11:00:31.082Z,2870.00
2023-05-19T11:01:31.220Z,2712.00
2023-05-19T11:02:31.106Z,5092.00
2023-05-19T11:03:31.091Z,5001.00
2023-05-19T11:04:31.159Z,5248.00
2023-05-19T11:05:31.607Z,4702.00
2023-05-19T11:06:31.012Z,4742.00
2023-05-19T11:07:31.001Z,4374.00
2023-05-19T11:08:30.982Z,4043.00
2023-05-19T11:09:39.662Z,3893.00
2023-05-19T11:10:30.986Z,7595.00
2023-05-19T11:11:32.198Z,5667.00
2023-05-19T11:12:30.940Z,3515.00
2023-05-19T11:13:30.945Z,1835.00
2023-05-19T11:14:30.926Z,2487.00
2023-05-19T11:15:31.126Z,4011.00
2023-05-19T11:16:30.972Z,5186.00
2023-05-19T11:17:31.801Z,5512.00
2023-05-19T11:18:30.893Z,5406.00
2023-05-19T11:19:30.933Z,5100.00
2023-05-19T11:20:30.871Z,5246.00
2023-05-19T11:21:30.893Z,4129.00
2023-05-19T11:22:30.837Z,4482.00
2023-05-19T11:23:31.820Z,4334.00
2023-05-19T11:24:30.805Z,4498.00
2023-05-19T11:25:30.933Z,4611.00
2023-05-19T11:26:30.783Z,4304.00
2023-05-19T11:27:30.800Z,4000.00
2023-05-19T11:28:30.773Z,3953.00
2023-05-19T11:29:31.560Z,3859.00
2023-05-19T11:30:30.752Z,3969.00
2023-05-19T11:31:30.758Z,4053.00
2023-05-19T11:32:31.008Z,4065.00
2023-05-19T11:33:30.722Z,4111.00
2023-05-19T11:34:30.696Z,3868.00
2023-05-19T11:35:31.449Z,4065.00
2023-05-19T11:36:30.751Z,4222.00
2023-05-19T11:37:30.682Z,5696.00
2023-05-19T11:38:30.677Z,3256.00
2023-05-19T11:39:30.653Z,4585.00
2023-05-19T11:40:30.657Z,4544.00
2023-05-19T11:41:30.661Z,4336.00
2023-05-19T11:42:30.708Z,4055.00
2023-05-19T11:43:30.654Z,4089.00
2023-05-19T11:44:30.670Z,4232.00
2023-05-19T11:45:30.750Z,4546.00
2023-05-19T11:46:30.656Z,4783.00
2023-05-19T11:47:32.022Z,4605.00
2023-05-19T11:48:30.600Z,7305.00
2023-05-19T11:49:30.542Z,6687.00
2023-05-19T11:50:30.532Z,3214.00
2023-05-19T11:51:30.520Z,6395.00
2023-05-19T11:52:30.512Z,2242.00
2023-05-19T11:53:30.922Z,5352.00
2023-05-19T11:54:30.478Z,6775.00
2023-05-19T11:55:30.506Z,6077.00
2023-05-19T11:56:30.450Z,5474.00
2023-05-19T11:57:30.450Z,4992.00
2023-05-19T11:58:30.461Z,5003.00
2023-05-19T11:59:30.953Z,4808.00
2023-05-19T12:00:30.420Z,4384.00
2023-05-19T12:01:30.692Z,4596.00
2023-05-19T12:02:30.448Z,5624.00
2023-05-19T12:03:30.549Z,5219.00
2023-05-19T12:04:30.466Z,4981.00
2023-05-19T12:05:30.547Z,8083.00
2023-05-19T12:06:30.408Z,2576.00
2023-05-19T12:07:30.391Z,7415.00
2023-05-19T12:08:30.339Z,2799.00
2023-05-19T12:09:30.348Z,6338.00
2023-05-19T12:10:30.339Z,9220.00
2023-05-19T12:11:30.302Z,4698.00
2023-05-19T12:12:30.294Z,5162.00
2023-05-19T12:13:30.355Z,2592.00
2023-05-19T12:14:30.268Z,6276.00
2023-05-19T12:15:30.282Z,5902.00
2023-05-19T12:16:31.900Z,10469.00
2023-05-19T12:17:30.319Z,6389.00
2023-05-19T12:18:30.234Z,5856.00
2023-05-19T12:19:30.275Z,2227.00
2023-05-19T12:20:30.245Z,10539.00
2023-05-19T12:21:34.288Z,3266.00
2023-05-19T12:22:30.200Z,4352.00
2023-05-19T12:23:30.214Z,7455.00
2023-05-19T12:24:30.183Z,9799.00
2023-05-19T12:25:30.209Z,4387.00
2023-05-19T12:26:30.159Z,8523.00
2023-05-19T12:27:30.325Z,7075.00